Salamis Filoxenia — 5BUY2 — position and weather

sailwx.info

Track history (hours):
 
Tides and Currents Weather Stations Pressure Air Temp Water Temp Dewpoint Dewpoint Depression Visibility Wind Speed Wind Dir Waves Ship Positions

Salamis Filoxenia

Last reported at 2014-Jul-25 08:32 UTC. Time now 2014-Jul-25 09:00 UTC.
Position N 37°56' E 023°38'.

Length 157 m; draft 6.2 m.

Type: Passenger vessel. MMSI: 209167000.

Date/timePositionNaut miles runAvg speedWind from/ knotsBaromVisibWave heightAir tempDewpointWater temp
2014-Jul-25 08:32N 37°56' E 023°38'0 0.0
2014-Jul-25 07:32N 37°56' E 023°38'1 1.3
2014-Jul-25 06:33N 37°56' E 023°37'1312.6
2014-Jul-25 05:33N 37°44' E 023°43'5713.9
2014-Jul-25 01:25N 37°21' E 024°50'1314.3
2014-Jul-25 00:33N 37°19' E 025°05'1414.2
2014-Jul-24 23:34N 37°15' E 025°22'1615.6
2014-Jul-24 22:33N 37°12' E 025°42'1514.8
2014-Jul-24 21:34N 37°06' E 025°58'1514.6
2014-Jul-24 20:33N 36°57' E 026°14'1514.6
2014-Jul-24 19:32N 36°50' E 026°29'1414.3
2014-Jul-24 18:33N 36°42' E 026°44'30211.4
2014-Jul-23 16:09N 34°41' E 032°25'915.3
2014-Jul-23 15:33N 34°38' E 032°35'1414.5
2014-Jul-23 14:34N 34°33' E 032°52'1110.5
2014-Jul-23 13:33N 34°38' E 033°03'2 2.3
2014-Jul-23 12:34N 34°39' E 033°01'0 0.0
2014-Jul-23 11:30N 34°39' E 033°01'0 0.0
2014-Jul-23 10:27N 34°39' E 033°01'0 0.0
2014-Jul-23 09:18N 34°39' E 033°01'0 0.0
2014-Jul-23 08:30N 34°39' E 033°01'0 0.0
2014-Jul-23 07:33N 34°39' E 033°01'0 0.0
2014-Jul-23 05:33N 34°39' E 033°01'0 0.0
2014-Jul-23 04:24N 34°39' E 033°01'1 1.2
2014-Jul-23 03:33N 34°39' E 033°02'1212.3
2014-Jul-23 02:33N 34°30' E 033°12'1313.2
2014-Jul-23 01:33N 34°21' E 033°24'1212.5
2014-Jul-23 00:33N 34°11' E 033°32'1413.5
2014-Jul-22 23:33N 33°60' E 033°43'1413.8
2014-Jul-22 22:33N 33°49' E 033°53'1413.7
2014-Jul-22 21:33N 33°38' E 034°03'1413.9
2014-Jul-22 20:33N 33°28' E 034°14'1713.8
2014-Jul-22 19:20N 33°15' E 034°27'1113.7
2014-Jul-22 18:33N 33°07' E 034°35'1413.7
2014-Jul-22 17:33N 32°56' E 034°45'1413.7
2014-Jul-22 16:33N 32°51' E 035°00'106 4.8
2014-Jul-21 18:24N 34°08' E 033°33'1113.3
2014-Jul-21 17:33N 34°17' E 033°25'1313.4
2014-Jul-21 16:33N 34°27' E 033°15'1413.8
2014-Jul-21 15:34N 34°37' E 033°04'3 3.0
2014-Jul-21 14:33N 34°39' E 033°01'0 0.0
2014-Jul-21 13:33N 34°39' E 033°01'0 0.0
2014-Jul-21 12:33N 34°39' E 033°01'0 0.0
2014-Jul-21 11:33N 34°39' E 033°01'0 0.0
2014-Jul-21 10:33N 34°39' E 033°01'0 0.0
2014-Jul-21 09:33N 34°39' E 033°01'0 0.0
2014-Jul-21 08:33N 34°39' E 033°01'0 0.0
2014-Jul-21 07:33N 34°39' E 033°01'1 1.1
2014-Jul-21 06:33N 34°39' E 033°02'9 9.4
2014-Jul-21 05:34N 34°32' E 032°55'1615.7
2014-Jul-21 04:34N 34°37' E 032°37'34415.6
2014-Jul-20 06:32N 37°00' E 026°11'1515.9
2014-Jul-20 05:33N 37°11' E 025°57'1616.1
2014-Jul-20 04:33N 37°22' E 025°43'1616.1
2014-Jul-20 03:33N 37°32' E 025°26'7 6.7
2014-Jul-20 02:34N 37°28' E 025°19'0 0.0
2014-Jul-20 01:32N 37°28' E 025°19'0 0.0
2014-Jul-20 00:33N 37°28' E 025°19'0 0.0
2014-Jul-19 23:32N 37°28' E 025°19'0 0.0
2014-Jul-19 22:33N 37°28' E 025°19'0 0.0
2014-Jul-19 21:33N 37°28' E 025°19'0 0.0
2014-Jul-19 20:33N 37°28' E 025°19'0 0.0
2014-Jul-19 19:32N 37°28' E 025°19'0 0.0
2014-Jul-19 18:33N 37°28' E 025°19'0 0.0
2014-Jul-19 17:32N 37°28' E 025°19'0 0.0
2014-Jul-19 16:32N 37°28' E 025°19'0 0.0
2014-Jul-19 15:32N 37°28' E 025°19'3 3.0
2014-Jul-19 14:34N 37°26' E 025°17'1312.9
2014-Jul-19 13:33N 37°18' E 025°30'1514.8
2014-Jul-19 12:33N 37°11' E 025°47'1514.8
2014-Jul-19 11:33N 37°04' E 026°03'1514.8
2014-Jul-19 10:32N 36°55' E 026°18'1514.6
2014-Jul-19 09:32N 36°48' E 026°34'1414.7
2014-Jul-19 08:33N 36°40' E 026°49'29815.4
2014-Jul-18 13:10N 34°41' E 032°26'1015.5
2014-Jul-18 12:33N 34°38' E 032°37'1515.1
2014-Jul-18 11:33N 34°33' E 032°54'9 9.1
2014-Jul-18 10:34N 34°39' E 033°02'1 1.0
2014-Jul-18 09:33N 34°39' E 033°01'0 0.0
2014-Jul-18 08:33N 34°39' E 033°01'0 0.0
2014-Jul-18 07:33N 34°39' E 033°01'0 0.0
2014-Jul-18 06:33N 34°39' E 033°01'0 0.0
2014-Jul-18 05:33N 34°39' E 033°01'1 1.1
2014-Jul-18 04:33N 34°39' E 033°02'9 9.0
2014-Jul-18 03:33N 34°32' E 032°56'1514.6
2014-Jul-18 02:33N 34°36' E 032°39'34811.6
2014-Jul-16 20:32N 36°60' E 026°09'1414.5
2014-Jul-16 19:33N 37°09' E 025°54'2014.6
2014-Jul-16 18:10N 37°16' E 025°31'914.0
2014-Jul-16 17:33N 37°19' E 025°20'1414.2
2014-Jul-16 16:33N 37°24' E 025°04'6 6.2
2014-Jul-16 15:32N 37°26' E 024°57'0 0.0
2014-Jul-16 14:33N 37°26' E 024°57'0 0.0
2014-Jul-16 13:32N 37°26' E 024°57'0 0.0
2014-Jul-16 12:28N 37°26' E 024°57'0 0.0
2014-Jul-16 11:33N 37°26' E 024°57'0 0.0
2014-Jul-16 10:32N 37°26' E 024°57'0 0.0
2014-Jul-16 09:21N 37°26' E 024°57'0 0.0
2014-Jul-16 08:32N 37°26' E 024°57'0 0.0
2014-Jul-16 06:23N 37°26' E 024°57'0 0.0
2014-Jul-16 05:33N 37°26' E 024°57'0 0.0
2014-Jul-16 04:33N 37°26' E 024°57'8 7.8
2014-Jul-16 03:33N 37°23' E 025°06'1110.8
2014-Jul-16 02:33N 37°20' E 025°19'1111.2
2014-Jul-16 01:34N 37°19' E 025°33'1110.9
2014-Jul-16 00:34N 37°18' E 025°46'1310.9
2014-Jul-15 23:21N 37°17' E 026°03'810.6
2014-Jul-15 22:33N 37°17' E 026°13'1211.8
2014-Jul-15 21:34N 37°15' E 026°28'5 0.8
2014-Jul-15 14:30N 37°19' E 026°33'0 0.0
2014-Jul-15 13:30N 37°19' E 026°33'2 2.3
2014-Jul-15 12:32N 37°18' E 026°35'1514.9
2014-Jul-15 11:31N 37°13' E 026°53'  
Track history (hours):
 
Tides and Currents Weather Stations Pressure Air Temp Water Temp Dewpoint Dewpoint Depression Visibility Wind Speed Wind Dir Waves Ship Positions

Salamis Filoxenia

Last reported at 2014-Jul-25 08:32 UTC. Time now 2014-Jul-25 09:00 UTC.
Position N 37°56' E 023°38'.

Length 157 m; draft 6.2 m.

Type: Passenger vessel. MMSI: 209167000.

Date/timePositionNaut miles runAvg speedWind from/ knotsBaromVisibWave heightAir tempDewpointWater temp
2014-Jul-25 08:32N 37°56' E 023°38'0 0.0
2014-Jul-25 07:32N 37°56' E 023°38'1 1.3
2014-Jul-25 06:33N 37°56' E 023°37'1312.6
2014-Jul-25 05:33N 37°44' E 023°43'5713.9
2014-Jul-25 01:25N 37°21' E 024°50'1314.3
2014-Jul-25 00:33N 37°19' E 025°05'1414.2
2014-Jul-24 23:34N 37°15' E 025°22'1615.6
2014-Jul-24 22:33N 37°12' E 025°42'1514.8
2014-Jul-24 21:34N 37°06' E 025°58'1514.6
2014-Jul-24 20:33N 36°57' E 026°14'1514.6
2014-Jul-24 19:32N 36°50' E 026°29'1414.3
2014-Jul-24 18:33N 36°42' E 026°44'30211.4
2014-Jul-23 16:09N 34°41' E 032°25'915.3
2014-Jul-23 15:33N 34°38' E 032°35'1414.5
2014-Jul-23 14:34N 34°33' E 032°52'1110.5
2014-Jul-23 13:33N 34°38' E 033°03'2 2.3
2014-Jul-23 12:34N 34°39' E 033°01'0 0.0
2014-Jul-23 11:30N 34°39' E 033°01'0 0.0
2014-Jul-23 10:27N 34°39' E 033°01'0 0.0
2014-Jul-23 09:18N 34°39' E 033°01'0 0.0
2014-Jul-23 08:30N 34°39' E 033°01'0 0.0
2014-Jul-23 07:33N 34°39' E 033°01'0 0.0
2014-Jul-23 05:33N 34°39' E 033°01'0 0.0
2014-Jul-23 04:24N 34°39' E 033°01'1 1.2
2014-Jul-23 03:33N 34°39' E 033°02'1212.3
2014-Jul-23 02:33N 34°30' E 033°12'1313.2
2014-Jul-23 01:33N 34°21' E 033°24'1212.5
2014-Jul-23 00:33N 34°11' E 033°32'1413.5
2014-Jul-22 23:33N 33°60' E 033°43'1413.8
2014-Jul-22 22:33N 33°49' E 033°53'1413.7
2014-Jul-22 21:33N 33°38' E 034°03'1413.9
2014-Jul-22 20:33N 33°28' E 034°14'1713.8
2014-Jul-22 19:20N 33°15' E 034°27'1113.7
2014-Jul-22 18:33N 33°07' E 034°35'1413.7
2014-Jul-22 17:33N 32°56' E 034°45'1413.7
2014-Jul-22 16:33N 32°51' E 035°00'106 4.8
2014-Jul-21 18:24N 34°08' E 033°33'1113.3
2014-Jul-21 17:33N 34°17' E 033°25'1313.4
2014-Jul-21 16:33N 34°27' E 033°15'1413.8
2014-Jul-21 15:34N 34°37' E 033°04'3 3.0
2014-Jul-21 14:33N 34°39' E 033°01'0 0.0
2014-Jul-21 13:33N 34°39' E 033°01'0 0.0
2014-Jul-21 12:33N 34°39' E 033°01'0 0.0
2014-Jul-21 11:33N 34°39' E 033°01'0 0.0
2014-Jul-21 10:33N 34°39' E 033°01'0 0.0
2014-Jul-21 09:33N 34°39' E 033°01'0 0.0
2014-Jul-21 08:33N 34°39' E 033°01'0 0.0
2014-Jul-21 07:33N 34°39' E 033°01'1 1.1
2014-Jul-21 06:33N 34°39' E 033°02'9 9.4
2014-Jul-21 05:34N 34°32' E 032°55'1615.7
2014-Jul-21 04:34N 34°37' E 032°37'34415.6
2014-Jul-20 06:32N 37°00' E 026°11'1515.9
2014-Jul-20 05:33N 37°11' E 025°57'1616.1
2014-Jul-20 04:33N 37°22' E 025°43'1616.1
2014-Jul-20 03:33N 37°32' E 025°26'7 6.7
2014-Jul-20 02:34N 37°28' E 025°19'0 0.0
2014-Jul-20 01:32N 37°28' E 025°19'0 0.0
2014-Jul-20 00:33N 37°28' E 025°19'0 0.0
2014-Jul-19 23:32N 37°28' E 025°19'0 0.0
2014-Jul-19 22:33N 37°28' E 025°19'0 0.0
2014-Jul-19 21:33N 37°28' E 025°19'0 0.0
2014-Jul-19 20:33N 37°28' E 025°19'0 0.0
2014-Jul-19 19:32N 37°28' E 025°19'0 0.0
2014-Jul-19 18:33N 37°28' E 025°19'0 0.0
2014-Jul-19 17:32N 37°28' E 025°19'0 0.0
2014-Jul-19 16:32N 37°28' E 025°19'0 0.0
2014-Jul-19 15:32N 37°28' E 025°19'3 3.0
2014-Jul-19 14:34N 37°26' E 025°17'1312.9
2014-Jul-19 13:33N 37°18' E 025°30'1514.8
2014-Jul-19 12:33N 37°11' E 025°47'1514.8
2014-Jul-19 11:33N 37°04' E 026°03'1514.8
2014-Jul-19 10:32N 36°55' E 026°18'1514.6
2014-Jul-19 09:32N 36°48' E 026°34'1414.7
2014-Jul-19 08:33N 36°40' E 026°49'29815.4
2014-Jul-18 13:10N 34°41' E 032°26'1015.5
2014-Jul-18 12:33N 34°38' E 032°37'1515.1
2014-Jul-18 11:33N 34°33' E 032°54'9 9.1
2014-Jul-18 10:34N 34°39' E 033°02'1 1.0
2014-Jul-18 09:33N 34°39' E 033°01'0 0.0
2014-Jul-18 08:33N 34°39' E 033°01'0 0.0
2014-Jul-18 07:33N 34°39' E 033°01'0 0.0
2014-Jul-18 06:33N 34°39' E 033°01'0 0.0
2014-Jul-18 05:33N 34°39' E 033°01'1 1.1
2014-Jul-18 04:33N 34°39' E 033°02'9 9.0
2014-Jul-18 03:33N 34°32' E 032°56'1514.6
2014-Jul-18 02:33N 34°36' E 032°39'34811.6
2014-Jul-16 20:32N 36°60' E 026°09'1414.5
2014-Jul-16 19:33N 37°09' E 025°54'2014.6
2014-Jul-16 18:10N 37°16' E 025°31'914.0
2014-Jul-16 17:33N 37°19' E 025°20'1414.2
2014-Jul-16 16:33N 37°24' E 025°04'6 6.2
2014-Jul-16 15:32N 37°26' E 024°57'0 0.0
2014-Jul-16 14:33N 37°26' E 024°57'0 0.0
2014-Jul-16 13:32N 37°26' E 024°57'0 0.0
2014-Jul-16 12:28N 37°26' E 024°57'0 0.0
2014-Jul-16 11:33N 37°26' E 024°57'0 0.0
2014-Jul-16 10:32N 37°26' E 024°57'0 0.0
2014-Jul-16 09:21N 37°26' E 024°57'0 0.0
2014-Jul-16 08:32N 37°26' E 024°57'0 0.0
2014-Jul-16 06:23N 37°26' E 024°57'0 0.0
2014-Jul-16 05:33N 37°26' E 024°57'0 0.0
2014-Jul-16 04:33N 37°26' E 024°57'8 7.8
2014-Jul-16 03:33N 37°23' E 025°06'1110.8
2014-Jul-16 02:33N 37°20' E 025°19'1111.2
2014-Jul-16 01:34N 37°19' E 025°33'1110.9
2014-Jul-16 00:34N 37°18' E 025°46'1310.9
2014-Jul-15 23:21N 37°17' E 026°03'810.6
2014-Jul-15 22:33N 37°17' E 026°13'1211.8
2014-Jul-15 21:34N 37°15' E 026°28'5 0.8
2014-Jul-15 14:30N 37°19' E 026°33'0 0.0
2014-Jul-15 13:30N 37°19' E 026°33'2 2.3
2014-Jul-15 12:32N 37°18' E 026°35'1514.9
2014-Jul-15 11:31N 37°13' E 026°53'  

Dump ship's entire track history